메인 페이지
METAR-TAF:

METAR-TAF

공항 :

Ozark, 앨라배마, 미국

위도: 31-17N, 경도: 085-43W, 고도: 91m

현재 날씨관측

예보는 23분 전, 06:56시(UTC)에 발표되었습니다.
6kt
온도 21°C
습도 100%
기압 1014 hPa
시정: 16.1km
고도 900ft 상공 구름 보통
고도 6000ft 상공 구름 보통

METAR: KOZR 220656Z AUTO 27006KT 10SM SCT009 SCT060 21/21 A2993 RMK AO2 SLP135 T02120205

시각: 02:19 (07:19 UTC)

예보

예보는 3 시간 47분 전, 03:32시(UTC)에 발표되었습니다.
예보 대상 시간: 22일 03시부터 23일 06시까지 (UTC)
남남동6kt
시정: 9000m
고도 3500ft 상공 흐림
약한비
일시적
22일 03시부터 22일 05시까지 (UTC)
고도 300ft 상공 흐림
전환 중
22일 07시부터 22일 08시까지 (UTC)
남남서9kt
시정 10km 이상
고도 600ft 상공 구름 많음
전환 중
22일 11시부터 22일 12시까지 (UTC)
9kt
시정: 8000m
고도 1500ft 상공 구름 많음
전환 중
22일 15시부터 22일 16시까지 (UTC)
북서15kt, 순간 최대 풍속 20kt
시정 10km 이상
고도 5000ft 상공 구름 보통
고도 7000ft 상공 흐림
전환 중
22일 18시부터 22일 19시까지 (UTC)
북서10kt, 순간 최대 풍속 15kt
시정 10km 이상
고도 8000ft 상공 구름 조금
전환 중
23일 01시부터 23일 02시까지 (UTC)
북북서9kt
시정 10km 이상
맑음

TAF: KOZR 220332Z 2203/2306 16006KT 9000 -RA OVC035 QNH2986INS TEMPO 2203/2205 OVC003 BECMG 2207/2208 20009KT 9999 NSW BKN006 QNH2987INS BECMG 2211/2212 27009KT 8000 RA BKN015 QNH2990INS BECMG 2215/2216 32015G20KT 9999 NSW SCT050 OVC070 QNH2997INS BECMG 2218/2219 32010G15KT 9999 FEW080 QNH2999INS BECMG 2301/2302 34009KT 9999 SKC QNH3007INS TX30/2220Z TN18/2214Z

4,000개 이상의 공항 관측 자료 및 예보 (METAR 및 TAF 보고).

지도상에서 검색 가능한 기상관측소가 노란 점과 빨간 점으로 표시되어 있습니다.

기상관측소 명을 보려면 표시 위로 마우스를 이동하세요.

날씨 관측과 예보를 보려면 클릭하세요.

지도 변경 : 확대하려면 엑스 표시가 있는 녹색 버튼, 축소하려면 빼기 표시가 있는 녹색 버튼, 다음 페이지의 지도를 보려면 녹색 화살표를 클릭하세요.


METAR-TAF: